createdAt,value
2022-07-29T00:00:29.004Z,1.50
2022-07-29T00:01:29.003Z,1.30
2022-07-29T00:02:29.037Z,1.50
2022-07-29T00:03:29.641Z,1.60
2022-07-29T00:04:29.048Z,1.70
2022-07-29T00:05:28.990Z,1.30
2022-07-29T00:06:28.938Z,1.40
2022-07-29T00:07:28.939Z,1.50
2022-07-29T00:08:28.924Z,1.40
2022-07-29T00:09:28.900Z,1.50
2022-07-29T00:10:28.891Z,1.30
2022-07-29T00:11:29.869Z,1.90
2022-07-29T00:12:28.874Z,1.70
2022-07-29T00:13:32.500Z,1.50
2022-07-29T00:14:28.856Z,1.70
2022-07-29T00:15:29.089Z,1.60
2022-07-29T00:16:28.895Z,1.50
2022-07-29T00:17:28.890Z,1.50
2022-07-29T00:18:28.794Z,1.60
2022-07-29T00:19:28.798Z,1.70
2022-07-29T00:20:28.774Z,1.60
2022-07-29T00:21:28.770Z,1.90
2022-07-29T00:22:28.795Z,1.50
2022-07-29T00:23:30.642Z,1.50
2022-07-29T00:24:28.783Z,1.10
2022-07-29T00:25:28.718Z,1.60
2022-07-29T00:26:28.713Z,1.50
2022-07-29T00:27:28.717Z,1.40
2022-07-29T00:28:28.685Z,1.50
2022-07-29T00:29:33.981Z,1.50
2022-07-29T00:30:28.677Z,1.40
2022-07-29T00:31:28.719Z,1.60
2022-07-29T00:32:28.656Z,1.50
2022-07-29T00:33:28.648Z,1.40
2022-07-29T00:34:28.612Z,1.50
2022-07-29T00:35:28.654Z,1.80
2022-07-29T00:36:28.604Z,1.50
2022-07-29T00:37:28.585Z,1.50
2022-07-29T00:38:28.572Z,1.50
2022-07-29T00:39:28.565Z,1.80
2022-07-29T00:40:28.548Z,1.70
2022-07-29T00:41:28.598Z,1.50
2022-07-29T00:42:28.528Z,2.10
2022-07-29T00:43:28.523Z,1.90
2022-07-29T00:44:28.503Z,1.80
2022-07-29T00:45:28.501Z,2.00
2022-07-29T00:46:28.603Z,1.70
2022-07-29T00:47:28.522Z,1.90
2022-07-29T00:48:28.494Z,1.50
2022-07-29T00:49:28.577Z,1.80
2022-07-29T00:50:28.434Z,1.60
2022-07-29T00:51:29.348Z,1.90
2022-07-29T00:52:28.425Z,1.70
2022-07-29T00:53:28.447Z,1.70
2022-07-29T00:54:28.406Z,1.50
2022-07-29T00:55:28.387Z,1.70
2022-07-29T00:56:28.364Z,1.70
2022-07-29T00:57:28.377Z,1.60
2022-07-29T00:58:28.347Z,1.80
2022-07-29T00:59:35.013Z,1.90
2022-07-29T01:00:28.491Z,1.90
2022-07-29T01:01:28.373Z,1.60
2022-07-29T01:02:28.407Z,1.70
2022-07-29T01:03:28.296Z,1.70
2022-07-29T01:04:28.285Z,1.70
2022-07-29T01:05:49.940Z,1.50
2022-07-29T01:06:29.012Z,1.70
2022-07-29T01:07:28.259Z,1.80
2022-07-29T01:08:28.242Z,1.50
2022-07-29T01:09:42.143Z,1.80
2022-07-29T01:10:28.216Z,1.80
2022-07-29T01:11:28.244Z,1.80
2022-07-29T01:12:28.838Z,2.10
2022-07-29T01:13:28.209Z,1.90
2022-07-29T01:14:28.170Z,2.00
2022-07-29T01:15:28.156Z,2.00
2022-07-29T01:16:28.199Z,2.00
2022-07-29T01:17:28.171Z,1.60
2022-07-29T01:18:28.126Z,1.80
2022-07-29T01:19:28.127Z,1.80
2022-07-29T01:20:31.497Z,1.60
2022-07-29T01:21:28.090Z,1.60
2022-07-29T01:22:28.098Z,1.50
2022-07-29T01:23:28.202Z,1.90
2022-07-29T01:24:28.053Z,1.70
2022-07-29T01:25:28.314Z,1.50
2022-07-29T01:26:28.051Z,1.60
2022-07-29T01:27:28.026Z,2.00
2022-07-29T01:28:28.042Z,1.70
2022-07-29T01:29:28.995Z,1.80
2022-07-29T01:30:27.983Z,1.70
2022-07-29T01:31:27.981Z,1.60
2022-07-29T01:32:29.338Z,1.80
2022-07-29T01:33:27.987Z,1.60
2022-07-29T01:34:27.934Z,1.60
2022-07-29T01:35:27.986Z,1.70
2022-07-29T01:36:27.911Z,1.80
2022-07-29T01:37:27.921Z,1.70
2022-07-29T01:38:27.905Z,1.80
2022-07-29T01:39:27.906Z,1.80
2022-07-29T01:40:27.883Z,1.90
2022-07-29T01:41:27.913Z,1.80
2022-07-29T01:42:27.847Z,2.00
2022-07-29T01:43:27.838Z,1.50
2022-07-29T01:44:27.827Z,1.70
2022-07-29T01:45:27.815Z,1.80
2022-07-29T01:46:27.849Z,1.80
2022-07-29T01:47:27.859Z,1.80
2022-07-29T01:48:27.784Z,1.90
2022-07-29T01:49:27.932Z,1.70
2022-07-29T01:50:27.754Z,1.80
2022-07-29T01:51:27.801Z,1.70
2022-07-29T01:52:27.734Z,1.50
2022-07-29T01:53:27.756Z,1.70
2022-07-29T01:54:27.717Z,1.80
2022-07-29T01:55:27.701Z,2.00
2022-07-29T01:56:27.685Z,2.00
2022-07-29T01:57:27.685Z,1.70
2022-07-29T01:58:27.673Z,2.00
2022-07-29T01:59:27.741Z,1.80
2022-07-29T02:00:27.646Z,1.50
2022-07-29T02:01:27.702Z,1.80
2022-07-29T02:02:27.624Z,1.90
2022-07-29T02:03:27.605Z,1.80
2022-07-29T02:04:29.838Z,1.80
2022-07-29T02:05:27.730Z,1.60
2022-07-29T02:06:27.624Z,1.50
2022-07-29T02:07:27.559Z,1.70
2022-07-29T02:08:27.595Z,1.70
2022-07-29T02:09:27.551Z,1.80
2022-07-29T02:10:27.528Z,1.80
2022-07-29T02:11:27.599Z,1.70
2022-07-29T02:12:27.855Z,1.50
2022-07-29T02:13:27.532Z,1.60
2022-07-29T02:14:27.699Z,1.80
2022-07-29T02:15:27.468Z,1.80
2022-07-29T02:16:28.052Z,1.40
2022-07-29T02:17:27.524Z,1.80
2022-07-29T02:18:27.449Z,1.80
2022-07-29T02:19:27.425Z,2.00
2022-07-29T02:20:27.448Z,2.00
2022-07-29T02:21:27.440Z,1.70
2022-07-29T02:22:27.412Z,1.80
2022-07-29T02:23:27.434Z,1.60
2022-07-29T02:24:27.373Z,1.80
2022-07-29T02:25:37.083Z,1.60
2022-07-29T02:26:27.363Z,1.80
2022-07-29T02:27:27.349Z,1.60
2022-07-29T02:28:27.329Z,2.00
2022-07-29T02:29:27.452Z,1.90
2022-07-29T02:30:27.306Z,1.80
2022-07-29T02:31:27.357Z,2.00
2022-07-29T02:32:27.335Z,1.70
2022-07-29T02:33:27.330Z,1.90
2022-07-29T02:34:27.259Z,1.80
2022-07-29T02:35:27.306Z,1.90
2022-07-29T02:36:27.272Z,1.90
2022-07-29T02:37:27.226Z,1.90
2022-07-29T02:38:27.216Z,1.80
2022-07-29T02:39:27.202Z,1.70
2022-07-29T02:40:27.192Z,1.90
2022-07-29T02:41:27.231Z,1.80
2022-07-29T02:42:27.166Z,1.90
2022-07-29T02:43:27.922Z,1.90
2022-07-29T02:44:31.260Z,2.10
2022-07-29T02:45:27.198Z,1.90
2022-07-29T02:46:28.504Z,2.00
2022-07-29T02:47:27.192Z,1.90
2022-07-29T02:48:27.121Z,1.90
2022-07-29T02:49:27.154Z,2.00
2022-07-29T02:50:27.071Z,1.70
2022-07-29T02:51:43.587Z,2.00
2022-07-29T02:52:27.061Z,1.90
2022-07-29T02:53:27.090Z,1.70
2022-07-29T02:54:27.995Z,1.70
2022-07-29T02:55:27.023Z,1.80
2022-07-29T02:56:27.023Z,1.70
2022-07-29T02:57:27.034Z,2.00
2022-07-29T02:58:27.025Z,1.90
2022-07-29T02:59:27.456Z,1.90
2022-07-29T03:00:26.977Z,1.90
2022-07-29T03:01:27.062Z,1.70
2022-07-29T03:02:27.007Z,1.70
2022-07-29T03:03:26.923Z,1.80
2022-07-29T03:04:26.982Z,1.60
2022-07-29T03:05:26.935Z,1.80
2022-07-29T03:06:30.936Z,1.90
2022-07-29T03:07:26.908Z,2.00
2022-07-29T03:08:26.881Z,1.90
2022-07-29T03:09:27.924Z,1.80
2022-07-29T03:10:26.946Z,2.00
2022-07-29T03:11:40.160Z,2.00
2022-07-29T03:12:26.862Z,1.70
2022-07-29T03:13:26.900Z,2.00
2022-07-29T03:14:26.823Z,2.00
2022-07-29T03:15:26.857Z,1.70
2022-07-29T03:16:26.848Z,1.80
2022-07-29T03:17:26.816Z,1.90
2022-07-29T03:18:26.763Z,1.80
2022-07-29T03:19:26.807Z,2.00
2022-07-29T03:20:26.756Z,2.00
2022-07-29T03:21:26.741Z,2.00
2022-07-29T03:22:26.752Z,1.80
2022-07-29T03:23:26.763Z,1.70
2022-07-29T03:24:26.743Z,1.50
2022-07-29T03:25:26.678Z,1.80
2022-07-29T03:26:26.736Z,1.90
2022-07-29T03:27:26.669Z,1.70
2022-07-29T03:28:27.031Z,1.90
2022-07-29T03:29:33.846Z,1.40
2022-07-29T03:30:26.637Z,1.70
2022-07-29T03:31:26.683Z,1.90
2022-07-29T03:32:26.715Z,1.90
2022-07-29T03:33:26.589Z,1.70
2022-07-29T03:34:28.065Z,1.70
2022-07-29T03:35:27.476Z,1.70
2022-07-29T03:36:26.661Z,1.60
2022-07-29T03:37:26.560Z,1.70
2022-07-29T03:38:26.541Z,1.90
2022-07-29T03:39:26.527Z,1.50
2022-07-29T03:40:26.509Z,1.50
2022-07-29T03:41:26.613Z,2.00
2022-07-29T03:42:28.890Z,1.90
2022-07-29T03:43:26.472Z,1.80
2022-07-29T03:44:26.515Z,1.70
2022-07-29T03:45:26.445Z,1.90
2022-07-29T03:46:26.534Z,2.00
2022-07-29T03:47:49.516Z,1.60
2022-07-29T03:48:26.470Z,2.00
2022-07-29T03:49:26.564Z,1.60
2022-07-29T03:50:26.396Z,1.80
2022-07-29T03:51:33.939Z,1.70
2022-07-29T03:52:26.375Z,1.50
2022-07-29T03:53:26.454Z,1.80
2022-07-29T03:54:26.362Z,1.70
2022-07-29T03:55:26.331Z,1.50
2022-07-29T03:56:26.345Z,2.00
2022-07-29T03:57:26.304Z,1.60
2022-07-29T03:58:26.299Z,2.00
2022-07-29T03:59:26.335Z,1.80
2022-07-29T04:00:26.299Z,1.80
2022-07-29T04:01:26.341Z,1.70
2022-07-29T04:02:30.398Z,1.80
2022-07-29T04:03:26.302Z,1.70
2022-07-29T04:04:26.247Z,1.80
2022-07-29T04:05:26.301Z,1.90
2022-07-29T04:06:26.207Z,1.90
2022-07-29T04:07:26.290Z,1.90
2022-07-29T04:08:26.215Z,1.90
2022-07-29T04:09:26.192Z,2.10
2022-07-29T04:10:30.560Z,1.80
2022-07-29T04:11:26.420Z,1.80
2022-07-29T04:12:26.206Z,1.80
2022-07-29T04:13:26.200Z,2.00
2022-07-29T04:14:26.234Z,1.90
2022-07-29T04:15:26.378Z,1.70
2022-07-29T04:16:26.200Z,1.70
2022-07-29T04:17:26.283Z,1.90
2022-07-29T04:18:26.183Z,1.90
2022-07-29T04:19:26.352Z,1.90
2022-07-29T04:20:26.431Z,2.10
2022-07-29T04:21:26.281Z,1.60
2022-07-29T04:22:26.200Z,1.90
2022-07-29T04:23:26.213Z,1.70
2022-07-29T04:24:26.266Z,1.80
2022-07-29T04:25:26.350Z,1.70
2022-07-29T04:26:26.519Z,1.80
2022-07-29T04:27:26.942Z,1.90
2022-07-29T04:28:26.361Z,1.70
2022-07-29T04:29:26.323Z,1.50
2022-07-29T04:30:26.261Z,1.70
2022-07-29T04:31:26.265Z,1.80
2022-07-29T04:32:26.163Z,1.90
2022-07-29T04:33:26.293Z,1.70
2022-07-29T04:34:28.177Z,1.60
2022-07-29T04:35:26.522Z,1.70
2022-07-29T04:36:28.720Z,2.30
2022-07-29T04:37:26.059Z,1.70
2022-07-29T04:38:26.060Z,1.90
2022-07-29T04:39:29.576Z,1.70
2022-07-29T04:40:25.945Z,1.80
2022-07-29T04:41:33.268Z,1.70
2022-07-29T04:42:27.792Z,1.80
2022-07-29T04:43:26.225Z,1.90
2022-07-29T04:44:28.472Z,1.70
2022-07-29T04:45:25.928Z,1.60
2022-07-29T04:46:25.982Z,1.80
2022-07-29T04:47:25.950Z,1.50
2022-07-29T04:48:28.784Z,1.80
2022-07-29T04:49:26.200Z,2.00
2022-07-29T04:50:25.784Z,1.60
2022-07-29T04:51:26.129Z,1.60
2022-07-29T04:52:26.051Z,1.70
2022-07-29T04:53:26.250Z,1.60
2022-07-29T04:54:26.063Z,1.70
2022-07-29T04:55:25.961Z,1.60
2022-07-29T04:56:25.936Z,1.80
2022-07-29T04:57:25.904Z,1.50
2022-07-29T04:58:25.923Z,1.80
2022-07-29T04:59:25.663Z,1.60
2022-07-29T05:00:31.036Z,1.60
2022-07-29T05:01:25.766Z,1.60
2022-07-29T05:02:25.622Z,1.50
2022-07-29T05:03:25.559Z,1.50
2022-07-29T05:04:25.552Z,1.70
2022-07-29T05:05:25.595Z,1.70
2022-07-29T05:06:25.530Z,1.40
2022-07-29T05:07:25.541Z,1.50
2022-07-29T05:08:25.543Z,1.80
2022-07-29T05:09:25.511Z,1.70
2022-07-29T05:10:26.355Z,1.50
2022-07-29T05:11:30.230Z,1.50
2022-07-29T05:12:25.464Z,1.60
2022-07-29T05:13:25.454Z,1.30
2022-07-29T05:14:26.026Z,1.60
2022-07-29T05:15:25.476Z,1.40
2022-07-29T05:16:25.521Z,1.50
2022-07-29T05:17:25.433Z,1.50
2022-07-29T05:18:26.193Z,1.50
2022-07-29T05:19:25.380Z,1.70
2022-07-29T05:20:25.375Z,1.60
2022-07-29T05:21:25.379Z,1.60
2022-07-29T05:22:25.343Z,1.50
2022-07-29T05:23:25.390Z,1.60
2022-07-29T05:24:25.331Z,1.60
2022-07-29T05:25:25.331Z,1.50
2022-07-29T05:26:25.305Z,1.40
2022-07-29T05:27:25.308Z,1.70
2022-07-29T05:28:25.324Z,1.60
2022-07-29T05:29:44.390Z,1.30
2022-07-29T05:31:35.899Z,1.60
2022-07-29T05:32:36.876Z,1.80
2022-07-29T05:33:37.250Z,1.80
2022-07-29T05:34:36.918Z,1.70
2022-07-29T05:35:36.847Z,1.70
2022-07-29T05:36:36.835Z,1.50
2022-07-29T05:37:36.816Z,1.70
2022-07-29T05:38:37.015Z,1.30
2022-07-29T05:39:48.934Z,1.50
2022-07-29T05:40:36.859Z,1.70
2022-07-29T05:41:37.035Z,1.60
2022-07-29T05:42:36.759Z,1.30
2022-07-29T05:43:36.753Z,1.60
2022-07-29T05:44:37.390Z,1.40
2022-07-29T05:45:49.719Z,1.60
2022-07-29T05:46:36.828Z,1.40
2022-07-29T05:47:36.697Z,1.40
2022-07-29T05:48:36.744Z,1.60
2022-07-29T05:49:36.741Z,1.70
2022-07-29T05:50:36.660Z,1.70
2022-07-29T05:51:36.666Z,1.50
2022-07-29T05:52:36.690Z,2.00
2022-07-29T05:53:36.648Z,1.60
2022-07-29T05:54:36.629Z,1.70
2022-07-29T05:55:36.637Z,1.60
2022-07-29T05:56:36.621Z,1.60
2022-07-29T05:57:36.599Z,1.50
2022-07-29T05:58:36.638Z,1.50
2022-07-29T05:59:36.589Z,1.80
2022-07-29T06:00:36.728Z,1.90
2022-07-29T06:01:36.583Z,1.90
2022-07-29T06:02:36.550Z,1.60
2022-07-29T06:03:36.518Z,1.70
2022-07-29T06:04:36.617Z,1.50
2022-07-29T06:05:37.036Z,1.70
2022-07-29T06:06:36.488Z,1.70
2022-07-29T06:07:36.510Z,1.70
2022-07-29T06:08:36.467Z,1.90
2022-07-29T06:09:36.569Z,1.70
2022-07-29T06:10:36.474Z,2.10
2022-07-29T06:11:36.456Z,1.80
2022-07-29T06:12:36.424Z,1.80
2022-07-29T06:13:36.415Z,2.20
2022-07-29T06:14:36.391Z,2.10
2022-07-29T06:15:36.431Z,1.80
2022-07-29T06:16:36.473Z,1.70
2022-07-29T06:17:36.365Z,1.90
2022-07-29T06:18:36.360Z,2.10
2022-07-29T06:19:36.357Z,2.00
2022-07-29T06:20:36.330Z,2.00
2022-07-29T06:21:36.323Z,1.80
2022-07-29T06:22:36.347Z,1.80
2022-07-29T06:23:36.297Z,1.80
2022-07-29T06:24:36.304Z,2.00
2022-07-29T06:25:36.307Z,2.00
2022-07-29T06:26:39.622Z,2.20
2022-07-29T06:27:36.248Z,2.10
2022-07-29T06:28:36.281Z,2.20
2022-07-29T06:29:36.261Z,2.00
2022-07-29T06:30:36.359Z,2.00
2022-07-29T06:31:37.885Z,2.10
2022-07-29T06:32:40.037Z,2.10
2022-07-29T06:33:36.193Z,2.20
2022-07-29T06:34:36.278Z,2.20
2022-07-29T06:35:41.413Z,2.40
2022-07-29T06:36:37.727Z,2.00
2022-07-29T06:37:36.882Z,2.40
2022-07-29T06:38:40.385Z,2.50
2022-07-29T06:39:36.131Z,2.10
2022-07-29T06:40:36.935Z,2.40
2022-07-29T06:41:36.117Z,2.30
2022-07-29T06:42:36.089Z,2.30
2022-07-29T06:43:36.117Z,2.00
2022-07-29T06:44:36.240Z,2.30
2022-07-29T06:45:36.063Z,2.40
2022-07-29T06:46:36.850Z,2.60
2022-07-29T06:47:36.075Z,2.20
2022-07-29T06:48:36.087Z,2.00
2022-07-29T06:49:36.003Z,2.30
2022-07-29T06:50:36.096Z,2.40
2022-07-29T06:51:35.986Z,2.40
2022-07-29T06:52:36.196Z,2.30
2022-07-29T06:53:35.986Z,2.20
2022-07-29T06:54:36.132Z,2.30
2022-07-29T06:55:35.952Z,2.20
2022-07-29T06:56:38.305Z,2.20
2022-07-29T06:57:35.917Z,2.30
2022-07-29T06:58:36.807Z,2.30
2022-07-29T06:59:36.221Z,2.40
2022-07-29T07:00:36.191Z,2.60
2022-07-29T07:01:36.012Z,2.40
2022-07-29T07:02:35.929Z,2.40
2022-07-29T07:03:35.847Z,2.20
2022-07-29T07:04:35.866Z,2.30
2022-07-29T07:05:35.842Z,2.30
2022-07-29T07:06:35.807Z,2.10
2022-07-29T07:07:35.807Z,2.30
2022-07-29T07:08:35.794Z,2.20
2022-07-29T07:09:40.594Z,2.10
2022-07-29T07:10:35.832Z,2.40
2022-07-29T07:11:35.809Z,2.40
2022-07-29T07:12:35.749Z,2.10
2022-07-29T07:13:36.691Z,2.20
2022-07-29T07:14:35.727Z,2.20
2022-07-29T07:15:39.882Z,2.10
2022-07-29T07:16:35.909Z,2.10
2022-07-29T07:17:35.705Z,2.10
2022-07-29T07:18:35.671Z,2.20
2022-07-29T07:19:35.658Z,2.20
2022-07-29T07:20:35.654Z,2.20
2022-07-29T07:21:36.116Z,2.30
2022-07-29T07:22:38.745Z,2.30
2022-07-29T07:23:35.924Z,2.30
2022-07-29T07:24:35.647Z,2.30
2022-07-29T07:25:35.591Z,2.30
2022-07-29T07:26:35.605Z,2.20
2022-07-29T07:27:35.572Z,2.20
2022-07-29T07:28:35.637Z,2.30
2022-07-29T07:29:35.576Z,2.30
2022-07-29T07:30:35.535Z,2.30
2022-07-29T07:31:36.712Z,3.10
2022-07-29T07:32:35.743Z,2.50
2022-07-29T07:33:35.807Z,2.10
2022-07-29T07:34:35.854Z,2.10
2022-07-29T07:35:35.758Z,2.10
2022-07-29T07:36:35.664Z,2.20
2022-07-29T07:37:35.812Z,2.40
2022-07-29T07:38:35.642Z,2.20
2022-07-29T07:39:35.699Z,2.30
2022-07-29T07:40:35.534Z,2.10
2022-07-29T07:41:35.761Z,2.40
2022-07-29T07:42:35.454Z,2.10
2022-07-29T07:43:35.474Z,2.30
2022-07-29T07:44:51.274Z,2.00
2022-07-29T07:45:35.608Z,2.30
2022-07-29T07:46:35.626Z,2.60
2022-07-29T07:47:35.748Z,2.60
2022-07-29T07:48:35.792Z,2.00
2022-07-29T07:49:36.090Z,2.50
2022-07-29T07:50:35.663Z,2.20
2022-07-29T07:51:36.534Z,2.10
2022-07-29T07:52:35.421Z,2.20
2022-07-29T07:53:35.568Z,2.20
2022-07-29T07:54:35.350Z,2.30
2022-07-29T07:56:00.444Z,2.20
2022-07-29T07:56:35.652Z,2.40
2022-07-29T07:57:36.115Z,2.20
2022-07-29T07:58:35.328Z,2.50
2022-07-29T07:59:35.318Z,2.30
2022-07-29T08:00:35.554Z,2.20
2022-07-29T08:01:55.035Z,2.00
2022-07-29T08:02:35.303Z,2.20
2022-07-29T08:03:35.250Z,2.70
2022-07-29T08:04:35.610Z,2.40
2022-07-29T08:05:35.469Z,2.10
2022-07-29T08:06:35.689Z,2.30
2022-07-29T08:07:35.362Z,2.60
2022-07-29T08:08:35.121Z,2.50
2022-07-29T08:09:35.382Z,2.30
2022-07-29T08:10:35.300Z,2.50
2022-07-29T08:11:35.247Z,2.20
2022-07-29T08:12:35.340Z,2.30
2022-07-29T08:13:35.419Z,2.50
2022-07-29T08:14:35.421Z,2.50
2022-07-29T08:15:35.112Z,2.30
2022-07-29T08:16:35.674Z,2.60
2022-07-29T08:17:35.293Z,2.30
2022-07-29T08:18:35.143Z,2.40
2022-07-29T08:19:35.106Z,2.30
2022-07-29T08:20:35.167Z,2.70
2022-07-29T08:21:35.460Z,2.50
2022-07-29T08:22:35.307Z,2.50
2022-07-29T08:23:46.011Z,2.50
2022-07-29T08:24:35.451Z,2.50
2022-07-29T08:25:40.096Z,2.50
2022-07-29T08:26:35.103Z,2.40
2022-07-29T08:27:43.333Z,2.40
2022-07-29T08:28:34.980Z,2.90
2022-07-29T08:29:35.194Z,2.40
2022-07-29T08:30:35.067Z,2.30
2022-07-29T08:31:35.152Z,2.30
2022-07-29T08:32:53.137Z,2.70
2022-07-29T08:33:35.277Z,2.40
2022-07-29T08:34:34.910Z,2.40
2022-07-29T08:35:35.722Z,2.50
2022-07-29T08:36:35.026Z,2.30
2022-07-29T08:37:34.983Z,2.30
2022-07-29T08:38:34.838Z,2.40
2022-07-29T08:39:34.805Z,2.30
2022-07-29T08:40:35.258Z,2.70
2022-07-29T08:41:34.800Z,2.70
2022-07-29T08:42:35.053Z,2.40
2022-07-29T08:43:35.157Z,2.30
2022-07-29T08:44:34.907Z,2.20
2022-07-29T08:45:34.910Z,2.40
2022-07-29T08:46:35.294Z,2.40
2022-07-29T08:47:35.008Z,2.30
2022-07-29T08:48:35.169Z,2.50
2022-07-29T08:49:34.996Z,2.40
2022-07-29T08:50:34.798Z,2.60
2022-07-29T08:51:35.007Z,2.80
2022-07-29T08:52:35.049Z,2.70
2022-07-29T08:53:35.225Z,2.40
2022-07-29T08:54:35.201Z,2.50
2022-07-29T08:55:34.801Z,2.50
2022-07-29T08:56:34.903Z,2.60
2022-07-29T08:57:34.760Z,2.80
2022-07-29T08:58:36.727Z,2.40
2022-07-29T08:59:34.943Z,2.80
2022-07-29T09:00:34.965Z,2.60
2022-07-29T09:01:35.001Z,2.40
2022-07-29T09:02:34.701Z,2.20
2022-07-29T09:03:34.868Z,2.20
2022-07-29T09:04:34.959Z,2.20
2022-07-29T09:05:40.147Z,2.50
2022-07-29T09:06:34.734Z,2.60
2022-07-29T09:07:34.969Z,2.50
2022-07-29T09:08:34.648Z,2.60
2022-07-29T09:09:41.757Z,2.20
2022-07-29T09:10:34.829Z,2.70
2022-07-29T09:11:34.844Z,2.70
2022-07-29T09:12:37.965Z,2.60
2022-07-29T09:13:34.606Z,2.30
2022-07-29T09:14:34.947Z,2.30
2022-07-29T09:15:34.653Z,2.30
2022-07-29T09:16:52.260Z,2.50
2022-07-29T09:17:34.876Z,2.50
2022-07-29T09:18:34.647Z,2.30
2022-07-29T09:19:34.622Z,2.40
2022-07-29T09:20:34.516Z,2.70
2022-07-29T09:21:34.290Z,2.80
2022-07-29T09:22:38.805Z,2.20
2022-07-29T09:23:34.282Z,2.60
2022-07-29T09:24:34.528Z,2.40
2022-07-29T09:25:34.303Z,2.50
2022-07-29T09:26:34.420Z,2.40
2022-07-29T09:27:34.336Z,2.50
2022-07-29T09:28:34.516Z,2.30
2022-07-29T09:29:36.268Z,2.20
2022-07-29T09:30:34.606Z,2.40
2022-07-29T09:31:34.541Z,2.50
2022-07-29T09:32:34.321Z,2.30
2022-07-29T09:33:34.447Z,2.50
2022-07-29T09:34:34.467Z,2.30
2022-07-29T09:35:34.490Z,2.30
2022-07-29T09:36:34.618Z,2.20
2022-07-29T09:37:34.202Z,2.50
2022-07-29T09:38:34.139Z,2.50
2022-07-29T09:39:34.441Z,2.70
2022-07-29T09:40:34.484Z,2.30
2022-07-29T09:41:35.028Z,2.70
2022-07-29T09:42:34.690Z,2.60
2022-07-29T09:43:34.527Z,2.50
2022-07-29T09:44:34.251Z,2.80
2022-07-29T09:45:34.505Z,2.70
2022-07-29T09:46:34.490Z,2.60
2022-07-29T09:47:34.244Z,2.50
2022-07-29T09:48:34.158Z,2.80
2022-07-29T09:49:34.119Z,2.70
2022-07-29T09:50:34.332Z,2.60
2022-07-29T09:51:38.193Z,2.60
2022-07-29T09:52:33.987Z,2.40
2022-07-29T09:53:34.074Z,2.40
2022-07-29T09:54:34.095Z,2.50
2022-07-29T09:55:34.169Z,2.30
2022-07-29T09:56:33.930Z,2.50
2022-07-29T09:57:34.301Z,2.30
2022-07-29T09:58:34.379Z,2.60
2022-07-29T09:59:34.299Z,2.50
2022-07-29T10:00:34.389Z,2.60
2022-07-29T10:01:34.065Z,2.20
2022-07-29T10:02:34.194Z,2.30
2022-07-29T10:03:34.185Z,2.70
2022-07-29T10:04:34.325Z,2.30
2022-07-29T10:05:36.529Z,2.20
2022-07-29T10:06:33.963Z,2.70
2022-07-29T10:07:34.163Z,2.60
2022-07-29T10:08:34.220Z,2.60
2022-07-29T10:09:34.216Z,2.50
2022-07-29T10:10:34.476Z,2.80
2022-07-29T10:11:36.524Z,2.50
2022-07-29T10:12:34.045Z,2.40
2022-07-29T10:13:34.160Z,2.60
2022-07-29T10:14:34.072Z,2.90
2022-07-29T10:15:34.042Z,2.60
2022-07-29T10:16:34.174Z,2.50
2022-07-29T10:17:33.639Z,2.90
2022-07-29T10:18:33.663Z,2.80
2022-07-29T10:19:33.653Z,2.20
2022-07-29T10:20:33.633Z,2.20
2022-07-29T10:21:35.673Z,2.50
2022-07-29T10:22:52.545Z,2.60
2022-07-29T10:23:46.801Z,2.30
2022-07-29T10:24:33.623Z,2.50
2022-07-29T10:25:33.555Z,2.70
2022-07-29T10:26:33.558Z,2.60
2022-07-29T10:27:33.532Z,2.80
2022-07-29T10:28:33.610Z,2.90
2022-07-29T10:29:33.524Z,2.80
2022-07-29T10:30:33.579Z,2.80
2022-07-29T10:31:33.723Z,2.90
2022-07-29T10:32:33.543Z,2.90
2022-07-29T10:33:33.495Z,3.10
2022-07-29T10:34:33.694Z,2.70
2022-07-29T10:35:33.452Z,2.80
2022-07-29T10:36:33.509Z,2.30
2022-07-29T10:37:35.526Z,2.70
2022-07-29T10:38:33.423Z,3.00
2022-07-29T10:39:34.369Z,3.20
2022-07-29T10:40:33.441Z,2.60
2022-07-29T10:41:44.022Z,3.20
2022-07-29T10:42:34.492Z,3.00
2022-07-29T10:43:33.363Z,3.20
2022-07-29T10:44:33.392Z,3.00
2022-07-29T10:45:33.363Z,3.10
2022-07-29T10:46:33.470Z,2.90
2022-07-29T10:47:35.264Z,2.80
2022-07-29T10:48:33.371Z,2.70
2022-07-29T10:49:33.335Z,2.70
2022-07-29T10:50:33.346Z,2.40
2022-07-29T10:51:33.369Z,2.70
2022-07-29T10:52:33.437Z,2.90
2022-07-29T10:53:33.890Z,3.00
2022-07-29T10:54:33.237Z,3.00
2022-07-29T10:55:33.246Z,2.90
2022-07-29T10:56:33.219Z,2.90
2022-07-29T10:57:53.284Z,2.80
2022-07-29T10:58:33.905Z,3.10
2022-07-29T10:59:36.343Z,2.90
2022-07-29T11:00:33.217Z,3.00
2022-07-29T11:01:37.289Z,3.00
2022-07-29T11:02:42.250Z,2.50
2022-07-29T11:03:33.220Z,3.30
2022-07-29T11:04:33.255Z,2.80
2022-07-29T11:05:40.704Z,2.80
2022-07-29T11:06:33.168Z,3.00
2022-07-29T11:07:46.087Z,2.90
2022-07-29T11:08:33.079Z,2.90
2022-07-29T11:09:37.525Z,3.00
2022-07-29T11:10:33.119Z,2.90
2022-07-29T11:11:33.059Z,2.90
2022-07-29T11:12:33.113Z,3.00
2022-07-29T11:13:33.048Z,3.00
2022-07-29T11:14:33.026Z,2.80
2022-07-29T11:15:33.012Z,3.00
2022-07-29T11:16:33.029Z,2.90
2022-07-29T11:17:47.048Z,2.70
2022-07-29T11:18:33.016Z,3.10
2022-07-29T11:19:32.944Z,2.80
2022-07-29T11:20:32.978Z,2.70
2022-07-29T11:21:35.971Z,3.00
2022-07-29T11:22:32.984Z,2.90
2022-07-29T11:23:34.019Z,2.80
2022-07-29T11:24:32.914Z,3.40
2022-07-29T11:25:51.029Z,3.10
2022-07-29T11:26:32.996Z,2.80
2022-07-29T11:27:32.870Z,3.00
2022-07-29T11:28:32.928Z,3.00
2022-07-29T11:29:32.844Z,2.60
2022-07-29T11:30:32.828Z,3.00
2022-07-29T11:31:32.816Z,2.90
2022-07-29T11:32:32.827Z,2.90
2022-07-29T12:07:01.472Z,2.70
2022-07-29T12:07:15.539Z,2.90
2022-07-29T12:08:14.760Z,2.70
2022-07-29T12:09:14.738Z,2.50
2022-07-29T12:10:20.131Z,2.40
2022-07-29T12:11:12.708Z,2.80
2022-07-29T12:12:12.769Z,2.40
2022-07-29T12:13:12.696Z,2.50
2022-07-29T12:14:12.681Z,2.70
2022-07-29T12:15:12.660Z,2.50
2022-07-29T12:16:14.786Z,2.60
2022-07-29T12:17:12.641Z,2.50
2022-07-29T12:18:13.000Z,2.80
2022-07-29T12:19:12.791Z,2.70
2022-07-29T12:20:12.607Z,2.50
2022-07-29T12:21:12.665Z,2.90
2022-07-29T12:22:12.675Z,3.30
2022-07-29T12:23:12.622Z,2.80
2022-07-29T12:24:12.648Z,2.80
2022-07-29T12:26:25.432Z,2.50
2022-07-29T12:27:12.720Z,2.70
2022-07-29T12:28:14.101Z,2.80
2022-07-29T12:29:20.368Z,2.70
2022-07-29T12:30:12.506Z,3.20
2022-07-29T12:31:12.655Z,2.60
2022-07-29T12:32:15.000Z,3.20
2022-07-29T12:33:12.499Z,2.80
2022-07-29T12:34:12.455Z,2.70
2022-07-29T12:35:12.520Z,2.40
2022-07-29T12:36:17.314Z,2.70
2022-07-29T12:37:12.472Z,2.40
2022-07-29T12:38:12.562Z,2.10
2022-07-29T12:39:12.446Z,2.30
2022-07-29T12:40:12.395Z,2.40
2022-07-29T12:41:12.436Z,2.30
2022-07-29T12:42:14.801Z,2.30
2022-07-29T12:43:12.351Z,2.30
2022-07-29T12:44:12.346Z,2.30
2022-07-29T12:45:12.389Z,2.10
2022-07-29T12:46:12.439Z,2.50
2022-07-29T12:47:12.441Z,2.40
2022-07-29T12:48:12.381Z,2.20
2022-07-29T12:49:12.369Z,2.40
2022-07-29T12:50:12.315Z,2.10
2022-07-29T12:51:12.276Z,2.10
2022-07-29T12:52:12.404Z,2.30
2022-07-29T12:53:12.325Z,2.00
2022-07-29T12:54:12.280Z,2.20
2022-07-29T12:55:12.235Z,2.00
2022-07-29T12:56:33.284Z,2.10
2022-07-29T12:57:20.326Z,2.20
2022-07-29T12:58:12.309Z,2.40
2022-07-29T12:59:12.312Z,2.50
2022-07-29T13:00:12.237Z,2.10
2022-07-29T13:01:17.275Z,2.70
2022-07-29T13:02:12.208Z,2.20
2022-07-29T13:03:12.341Z,2.50
2022-07-29T13:04:12.271Z,2.50
2022-07-29T13:05:12.187Z,2.80
2022-07-29T13:06:12.157Z,2.70
2022-07-29T13:07:12.137Z,2.30
2022-07-29T13:08:20.099Z,2.00
2022-07-29T13:09:12.110Z,2.20
2022-07-29T13:10:12.119Z,2.40
2022-07-29T13:11:12.141Z,2.50
2022-07-29T13:12:12.069Z,2.20
2022-07-29T13:13:12.293Z,2.40
2022-07-29T13:14:12.036Z,2.00
2022-07-29T13:15:12.038Z,2.10
2022-07-29T13:16:12.047Z,2.20
2022-07-29T13:17:12.087Z,2.00
2022-07-29T13:18:14.547Z,2.00
2022-07-29T13:19:12.001Z,2.10
2022-07-29T13:20:11.973Z,2.20
2022-07-29T13:21:11.966Z,2.40
2022-07-29T13:22:11.944Z,2.20
2022-07-29T13:23:12.010Z,2.20
2022-07-29T13:24:12.731Z,2.10
2022-07-29T13:25:11.932Z,2.20
2022-07-29T13:26:12.103Z,1.90
2022-07-29T13:27:11.907Z,1.90
2022-07-29T13:28:11.892Z,2.00
2022-07-29T13:29:11.962Z,2.50
2022-07-29T13:30:11.875Z,2.00
2022-07-29T13:31:12.891Z,2.20
2022-07-29T13:32:12.879Z,2.20
2022-07-29T13:33:11.853Z,2.30
2022-07-29T13:34:11.839Z,2.30
2022-07-29T13:35:11.881Z,2.30
2022-07-29T13:36:11.838Z,2.40
2022-07-29T13:37:11.804Z,2.30
2022-07-29T13:38:11.804Z,2.20
2022-07-29T13:39:11.816Z,2.20
2022-07-29T13:40:11.781Z,2.30
2022-07-29T13:41:11.813Z,2.00
2022-07-29T13:42:11.748Z,2.10
2022-07-29T13:43:11.749Z,2.40
2022-07-29T13:44:11.735Z,2.10
2022-07-29T13:45:11.722Z,2.40
2022-07-29T13:46:11.749Z,2.10
2022-07-29T13:47:11.744Z,2.40
2022-07-29T13:48:11.697Z,2.30
2022-07-29T13:49:11.772Z,2.60
2022-07-29T13:50:11.666Z,2.50
2022-07-29T13:51:11.665Z,2.60
2022-07-29T13:52:11.648Z,2.00
2022-07-29T13:53:11.691Z,2.40